sensor_id;sensor_type;location;lat;lon;timestamp;P1;durP1;ratioP1;P2;durP2;ratioP2
61785;SDS011;47692;53.714;11.372;2024-02-14T00:02:07;7.63;;;4.05;;
61785;SDS011;47692;53.714;11.372;2024-02-14T00:04:32;8.50;;;3.95;;
61785;SDS011;47692;53.714;11.372;2024-02-14T00:06:58;6.13;;;3.33;;
61785;SDS011;47692;53.714;11.372;2024-02-14T00:09:23;11.43;;;3.70;;
61785;SDS011;47692;53.714;11.372;2024-02-14T00:11:48;8.32;;;3.63;;
61785;SDS011;47692;53.714;11.372;2024-02-14T00:14:14;8.65;;;3.13;;
61785;SDS011;47692;53.714;11.372;2024-02-14T00:16:39;7.45;;;3.30;;
61785;SDS011;47692;53.714;11.372;2024-02-14T00:19:04;6.60;;;3.28;;
61785;SDS011;47692;53.714;11.372;2024-02-14T00:21:30;6.20;;;3.63;;
61785;SDS011;47692;53.714;11.372;2024-02-14T00:23:56;7.97;;;2.97;;
61785;SDS011;47692;53.714;11.372;2024-02-14T00:26:23;5.55;;;3.60;;
61785;SDS011;47692;53.714;11.372;2024-02-14T00:28:48;7.53;;;3.20;;
61785;SDS011;47692;53.714;11.372;2024-02-14T00:31:14;5.70;;;3.10;;
61785;SDS011;47692;53.714;11.372;2024-02-14T00:33:39;5.82;;;3.17;;
61785;SDS011;47692;53.714;11.372;2024-02-14T00:36:06;4.50;;;3.00;;
61785;SDS011;47692;53.714;11.372;2024-02-14T00:38:31;7.43;;;3.20;;
61785;SDS011;47692;53.714;11.372;2024-02-14T00:40:57;4.93;;;3.20;;
61785;SDS011;47692;53.714;11.372;2024-02-14T00:43:22;9.00;;;4.00;;
61785;SDS011;47692;53.714;11.372;2024-02-14T00:45:48;9.00;;;3.33;;
61785;SDS011;47692;53.714;11.372;2024-02-14T00:48:13;7.38;;;3.40;;
61785;SDS011;47692;53.714;11.372;2024-02-14T00:50:39;5.60;;;3.30;;
61785;SDS011;47692;53.714;11.372;2024-02-14T00:53:04;5.60;;;3.13;;
61785;SDS011;47692;53.714;11.372;2024-02-14T00:55:29;5.40;;;2.92;;
61785;SDS011;47692;53.714;11.372;2024-02-14T00:57:55;4.95;;;2.70;;
61785;SDS011;47692;53.714;11.372;2024-02-14T01:00:20;6.53;;;2.90;;
61785;SDS011;47692;53.714;11.372;2024-02-14T01:02:45;6.13;;;2.95;;
61785;SDS011;47692;53.714;11.372;2024-02-14T01:05:11;4.13;;;2.58;;
61785;SDS011;47692;53.714;11.372;2024-02-14T01:07:36;5.22;;;3.10;;
61785;SDS011;47692;53.714;11.372;2024-02-14T01:10:02;6.78;;;2.92;;
61785;SDS011;47692;53.714;11.372;2024-02-14T01:12:28;4.25;;;2.33;;
61785;SDS011;47692;53.714;11.372;2024-02-14T01:14:56;4.00;;;2.53;;
61785;SDS011;47692;53.714;11.372;2024-02-14T01:17:22;7.78;;;3.15;;
61785;SDS011;47692;53.714;11.372;2024-02-14T01:19:47;5.85;;;2.85;;
61785;SDS011;47692;53.714;11.372;2024-02-14T01:22:13;8.73;;;2.80;;
61785;SDS011;47692;53.714;11.372;2024-02-14T01:24:41;6.55;;;3.03;;
61785;SDS011;47692;53.714;11.372;2024-02-14T01:27:09;6.32;;;3.17;;
61785;SDS011;47692;53.714;11.372;2024-02-14T01:29:35;7.50;;;2.88;;
61785;SDS011;47692;53.714;11.372;2024-02-14T01:32:00;6.35;;;2.70;;
61785;SDS011;47692;53.714;11.372;2024-02-14T01:34:26;7.75;;;2.88;;
61785;SDS011;47692;53.714;11.372;2024-02-14T01:36:54;4.28;;;2.85;;
61785;SDS011;47692;53.714;11.372;2024-02-14T01:39:19;5.20;;;2.63;;
61785;SDS011;47692;53.714;11.372;2024-02-14T01:41:47;4.47;;;2.60;;
61785;SDS011;47692;53.714;11.372;2024-02-14T01:44:16;4.72;;;2.75;;
61785;SDS011;47692;53.714;11.372;2024-02-14T01:46:42;4.82;;;2.58;;
61785;SDS011;47692;53.714;11.372;2024-02-14T01:49:11;4.68;;;2.70;;
61785;SDS011;47692;53.714;11.372;2024-02-14T01:51:40;7.32;;;2.67;;
61785;SDS011;47692;53.714;11.372;2024-02-14T01:54:09;5.15;;;3.00;;
61785;SDS011;47692;53.714;11.372;2024-02-14T01:56:36;5.88;;;2.83;;
61785;SDS011;47692;53.714;11.372;2024-02-14T01:59:01;5.28;;;3.10;;
61785;SDS011;47692;53.714;11.372;2024-02-14T02:01:27;4.90;;;2.90;;
61785;SDS011;47692;53.714;11.372;2024-02-14T02:03:53;6.22;;;3.00;;
61785;SDS011;47692;53.714;11.372;2024-02-14T02:06:19;7.75;;;2.85;;
61785;SDS011;47692;53.714;11.372;2024-02-14T02:08:44;5.90;;;3.10;;
61785;SDS011;47692;53.714;11.372;2024-02-14T02:11:10;4.00;;;2.58;;
61785;SDS011;47692;53.714;11.372;2024-02-14T02:13:35;7.60;;;3.40;;
61785;SDS011;47692;53.714;11.372;2024-02-14T02:16:01;7.65;;;3.05;;
61785;SDS011;47692;53.714;11.372;2024-02-14T02:18:30;4.32;;;2.97;;
61785;SDS011;47692;53.714;11.372;2024-02-14T02:20:56;7.55;;;3.47;;
61785;SDS011;47692;53.714;11.372;2024-02-14T02:23:22;6.45;;;3.30;;
61785;SDS011;47692;53.714;11.372;2024-02-14T02:25:47;4.22;;;2.72;;
61785;SDS011;47692;53.714;11.372;2024-02-14T02:28:13;5.57;;;3.08;;
61785;SDS011;47692;53.714;11.372;2024-02-14T02:30:39;5.43;;;3.08;;
61785;SDS011;47692;53.714;11.372;2024-02-14T02:33:05;5.20;;;3.05;;
61785;SDS011;47692;53.714;11.372;2024-02-14T02:35:32;7.90;;;3.65;;
61785;SDS011;47692;53.714;11.372;2024-02-14T02:37:58;5.68;;;3.30;;
61785;SDS011;47692;53.714;11.372;2024-02-14T02:40:24;5.63;;;3.08;;
61785;SDS011;47692;53.714;11.372;2024-02-14T02:42:50;4.93;;;3.60;;
61785;SDS011;47692;53.714;11.372;2024-02-14T02:45:16;5.28;;;3.20;;
61785;SDS011;47692;53.714;11.372;2024-02-14T02:47:41;5.43;;;3.40;;
61785;SDS011;47692;53.714;11.372;2024-02-14T02:50:07;4.78;;;3.15;;
61785;SDS011;47692;53.714;11.372;2024-02-14T02:52:33;5.80;;;3.58;;
61785;SDS011;47692;53.714;11.372;2024-02-14T02:54:58;5.32;;;3.40;;
61785;SDS011;47692;53.714;11.372;2024-02-14T02:57:25;6.50;;;3.63;;
61785;SDS011;47692;53.714;11.372;2024-02-14T02:59:51;7.25;;;3.50;;
61785;SDS011;47692;53.714;11.372;2024-02-14T03:02:17;5.88;;;3.55;;
61785;SDS011;47692;53.714;11.372;2024-02-14T03:04:43;9.57;;;3.55;;
61785;SDS011;47692;53.714;11.372;2024-02-14T03:07:10;7.65;;;3.28;;
61785;SDS011;47692;53.714;11.372;2024-02-14T03:09:36;6.63;;;3.85;;
61785;SDS011;47692;53.714;11.372;2024-02-14T03:12:01;6.18;;;3.50;;
61785;SDS011;47692;53.714;11.372;2024-02-14T03:14:31;6.25;;;3.75;;
61785;SDS011;47692;53.714;11.372;2024-02-14T03:16:57;8.65;;;4.15;;
61785;SDS011;47692;53.714;11.372;2024-02-14T03:19:24;8.57;;;3.60;;
61785;SDS011;47692;53.714;11.372;2024-02-14T03:21:51;6.90;;;3.70;;
61785;SDS011;47692;53.714;11.372;2024-02-14T03:24:17;14.93;;;5.05;;
61785;SDS011;47692;53.714;11.372;2024-02-14T03:26:42;5.57;;;3.58;;
61785;SDS011;47692;53.714;11.372;2024-02-14T03:29:08;6.75;;;3.85;;
61785;SDS011;47692;53.714;11.372;2024-02-14T03:31:33;6.05;;;3.80;;
61785;SDS011;47692;53.714;11.372;2024-02-14T03:33:59;8.23;;;3.75;;
61785;SDS011;47692;53.714;11.372;2024-02-14T03:36:24;7.03;;;4.20;;
61785;SDS011;47692;53.714;11.372;2024-02-14T03:38:53;6.22;;;3.78;;
61785;SDS011;47692;53.714;11.372;2024-02-14T03:41:18;6.65;;;4.03;;
61785;SDS011;47692;53.714;11.372;2024-02-14T03:43:43;7.65;;;4.10;;
61785;SDS011;47692;53.714;11.372;2024-02-14T03:46:09;8.82;;;3.88;;
61785;SDS011;47692;53.714;11.372;2024-02-14T03:48:34;9.32;;;4.10;;
61785;SDS011;47692;53.714;11.372;2024-02-14T03:51:00;5.40;;;4.05;;
61785;SDS011;47692;53.714;11.372;2024-02-14T03:53:28;6.22;;;4.18;;
61785;SDS011;47692;53.714;11.372;2024-02-14T03:55:54;8.55;;;3.78;;
61785;SDS011;47692;53.714;11.372;2024-02-14T03:58:19;6.45;;;3.90;;
61785;SDS011;47692;53.714;11.372;2024-02-14T04:00:49;6.97;;;3.90;;
61785;SDS011;47692;53.714;11.372;2024-02-14T04:03:16;5.65;;;3.75;;
61785;SDS011;47692;53.714;11.372;2024-02-14T04:05:41;6.28;;;3.88;;
61785;SDS011;47692;53.714;11.372;2024-02-14T04:08:07;8.90;;;4.00;;
61785;SDS011;47692;53.714;11.372;2024-02-14T04:10:35;8.02;;;4.28;;
61785;SDS011;47692;53.714;11.372;2024-02-14T04:13:00;5.20;;;3.35;;
61785;SDS011;47692;53.714;11.372;2024-02-14T04:15:26;9.38;;;4.00;;
61785;SDS011;47692;53.714;11.372;2024-02-14T04:17:51;7.00;;;3.85;;
61785;SDS011;47692;53.714;11.372;2024-02-14T04:20:16;5.65;;;4.05;;
61785;SDS011;47692;53.714;11.372;2024-02-14T04:22:42;7.80;;;3.90;;
61785;SDS011;47692;53.714;11.372;2024-02-14T04:25:08;5.80;;;3.50;;
61785;SDS011;47692;53.714;11.372;2024-02-14T04:27:34;6.72;;;4.18;;
61785;SDS011;47692;53.714;11.372;2024-02-14T04:30:00;5.78;;;3.60;;
61785;SDS011;47692;53.714;11.372;2024-02-14T04:32:26;7.07;;;3.95;;
61785;SDS011;47692;53.714;11.372;2024-02-14T04:34:51;7.88;;;4.18;;
61785;SDS011;47692;53.714;11.372;2024-02-14T04:37:17;6.10;;;4.03;;
61785;SDS011;47692;53.714;11.372;2024-02-14T04:39:44;7.13;;;4.45;;
61785;SDS011;47692;53.714;11.372;2024-02-14T04:42:09;8.52;;;3.85;;
61785;SDS011;47692;53.714;11.372;2024-02-14T04:44:34;7.07;;;3.80;;
61785;SDS011;47692;53.714;11.372;2024-02-14T04:47:00;6.47;;;3.92;;
61785;SDS011;47692;53.714;11.372;2024-02-14T04:49:25;8.65;;;4.15;;
61785;SDS011;47692;53.714;11.372;2024-02-14T04:51:51;7.53;;;3.88;;
61785;SDS011;47692;53.714;11.372;2024-02-14T04:54:17;8.25;;;3.75;;
61785;SDS011;47692;53.714;11.372;2024-02-14T04:56:43;6.35;;;3.80;;
61785;SDS011;47692;53.714;11.372;2024-02-14T04:59:08;6.30;;;3.78;;
61785;SDS011;47692;53.714;11.372;2024-02-14T05:01:34;7.95;;;4.28;;
61785;SDS011;47692;53.714;11.372;2024-02-14T05:03:59;6.53;;;3.65;;
61785;SDS011;47692;53.714;11.372;2024-02-14T05:06:25;6.68;;;4.38;;
61785;SDS011;47692;53.714;11.372;2024-02-14T05:08:50;6.80;;;3.75;;
61785;SDS011;47692;53.714;11.372;2024-02-14T05:11:16;7.95;;;4.35;;
61785;SDS011;47692;53.714;11.372;2024-02-14T05:13:42;5.53;;;3.60;;
61785;SDS011;47692;53.714;11.372;2024-02-14T05:16:08;6.78;;;4.07;;
61785;SDS011;47692;53.714;11.372;2024-02-14T05:18:36;6.75;;;3.78;;
61785;SDS011;47692;53.714;11.372;2024-02-14T05:21:06;6.93;;;4.53;;
61785;SDS011;47692;53.714;11.372;2024-02-14T05:23:32;7.45;;;4.38;;
61785;SDS011;47692;53.714;11.372;2024-02-14T05:25:57;7.50;;;3.90;;
61785;SDS011;47692;53.714;11.372;2024-02-14T05:28:23;7.28;;;4.30;;
61785;SDS011;47692;53.714;11.372;2024-02-14T05:30:48;8.27;;;4.35;;
61785;SDS011;47692;53.714;11.372;2024-02-14T05:33:13;7.53;;;4.70;;
61785;SDS011;47692;53.714;11.372;2024-02-14T05:35:39;8.77;;;4.45;;
61785;SDS011;47692;53.714;11.372;2024-02-14T05:38:04;7.47;;;3.92;;
61785;SDS011;47692;53.714;11.372;2024-02-14T05:40:32;9.60;;;5.03;;
61785;SDS011;47692;53.714;11.372;2024-02-14T05:42:58;9.18;;;4.90;;
61785;SDS011;47692;53.714;11.372;2024-02-14T05:45:23;10.07;;;4.68;;
61785;SDS011;47692;53.714;11.372;2024-02-14T05:47:48;8.50;;;4.47;;
61785;SDS011;47692;53.714;11.372;2024-02-14T05:50:14;8.93;;;4.65;;
61785;SDS011;47692;53.714;11.372;2024-02-14T05:52:39;7.00;;;4.50;;
61785;SDS011;47692;53.714;11.372;2024-02-14T05:55:05;10.55;;;5.18;;
61785;SDS011;47692;53.714;11.372;2024-02-14T05:57:30;9.73;;;5.25;;
61785;SDS011;47692;53.714;11.372;2024-02-14T05:59:56;10.15;;;5.32;;
61785;SDS011;47692;53.714;11.372;2024-02-14T06:02:21;7.78;;;4.80;;
61785;SDS011;47692;53.714;11.372;2024-02-14T06:04:47;9.93;;;5.22;;
61785;SDS011;47692;53.714;11.372;2024-02-14T06:07:12;9.07;;;4.90;;
61785;SDS011;47692;53.714;11.372;2024-02-14T06:09:37;10.70;;;4.72;;
61785;SDS011;47692;53.714;11.372;2024-02-14T06:12:03;9.32;;;5.20;;
61785;SDS011;47692;53.714;11.372;2024-02-14T06:14:29;8.80;;;5.07;;
61785;SDS011;47692;53.714;11.372;2024-02-14T06:16:55;8.98;;;5.30;;
61785;SDS011;47692;53.714;11.372;2024-02-14T06:19:21;10.35;;;5.70;;
61785;SDS011;47692;53.714;11.372;2024-02-14T06:21:50;8.93;;;5.15;;
61785;SDS011;47692;53.714;11.372;2024-02-14T06:24:15;9.50;;;4.90;;
61785;SDS011;47692;53.714;11.372;2024-02-14T06:26:40;9.10;;;5.40;;
61785;SDS011;47692;53.714;11.372;2024-02-14T06:29:06;10.95;;;5.53;;
61785;SDS011;47692;53.714;11.372;2024-02-14T06:31:31;10.40;;;5.57;;
61785;SDS011;47692;53.714;11.372;2024-02-14T06:33:56;9.98;;;5.43;;
61785;SDS011;47692;53.714;11.372;2024-02-14T06:36:21;11.55;;;5.43;;
61785;SDS011;47692;53.714;11.372;2024-02-14T06:38:47;11.80;;;5.78;;
61785;SDS011;47692;53.714;11.372;2024-02-14T06:41:12;7.30;;;4.68;;
61785;SDS011;47692;53.714;11.372;2024-02-14T06:43:38;11.55;;;6.03;;
61785;SDS011;47692;53.714;11.372;2024-02-14T06:46:04;12.98;;;5.30;;
61785;SDS011;47692;53.714;11.372;2024-02-14T06:48:30;11.63;;;4.95;;
61785;SDS011;47692;53.714;11.372;2024-02-14T06:50:56;10.25;;;5.75;;
61785;SDS011;47692;53.714;11.372;2024-02-14T06:53:21;9.57;;;5.00;;
61785;SDS011;47692;53.714;11.372;2024-02-14T06:55:47;12.85;;;5.75;;
61785;SDS011;47692;53.714;11.372;2024-02-14T06:58:12;11.93;;;5.72;;
61785;SDS011;47692;53.714;11.372;2024-02-14T07:00:37;9.07;;;5.18;;
61785;SDS011;47692;53.714;11.372;2024-02-14T07:03:03;10.20;;;5.43;;
61785;SDS011;47692;53.714;11.372;2024-02-14T07:05:28;11.98;;;5.78;;
61785;SDS011;47692;53.714;11.372;2024-02-14T07:07:54;10.25;;;5.40;;
61785;SDS011;47692;53.714;11.372;2024-02-14T07:10:20;13.15;;;5.95;;
61785;SDS011;47692;53.714;11.372;2024-02-14T07:12:45;10.95;;;5.45;;
61785;SDS011;47692;53.714;11.372;2024-02-14T07:15:10;9.65;;;5.80;;
61785;SDS011;47692;53.714;11.372;2024-02-14T07:17:36;12.57;;;5.97;;
61785;SDS011;47692;53.714;11.372;2024-02-14T07:20:03;10.07;;;5.40;;
61785;SDS011;47692;53.714;11.372;2024-02-14T07:22:29;12.00;;;5.88;;
61785;SDS011;47692;53.714;11.372;2024-02-14T07:24:55;13.02;;;5.95;;
61785;SDS011;47692;53.714;11.372;2024-02-14T07:27:21;11.05;;;5.30;;
61785;SDS011;47692;53.714;11.372;2024-02-14T07:29:46;12.93;;;7.10;;
61785;SDS011;47692;53.714;11.372;2024-02-14T07:32:12;11.90;;;5.55;;
61785;SDS011;47692;53.714;11.372;2024-02-14T07:34:40;11.20;;;5.97;;
61785;SDS011;47692;53.714;11.372;2024-02-14T07:37:06;11.43;;;6.38;;
61785;SDS011;47692;53.714;11.372;2024-02-14T07:39:31;12.35;;;6.18;;
61785;SDS011;47692;53.714;11.372;2024-02-14T07:41:57;12.68;;;6.22;;
61785;SDS011;47692;53.714;11.372;2024-02-14T07:44:22;12.48;;;6.32;;
61785;SDS011;47692;53.714;11.372;2024-02-14T07:46:51;13.57;;;7.32;;
61785;SDS011;47692;53.714;11.372;2024-02-14T07:49:17;11.82;;;6.00;;
61785;SDS011;47692;53.714;11.372;2024-02-14T07:51:44;11.93;;;5.63;;
61785;SDS011;47692;53.714;11.372;2024-02-14T07:54:09;11.10;;;6.35;;
61785;SDS011;47692;53.714;11.372;2024-02-14T07:56:34;14.27;;;6.93;;
61785;SDS011;47692;53.714;11.372;2024-02-14T07:59:00;11.75;;;6.40;;
61785;SDS011;47692;53.714;11.372;2024-02-14T08:01:25;11.90;;;6.20;;
61785;SDS011;47692;53.714;11.372;2024-02-14T08:03:51;11.63;;;7.10;;
61785;SDS011;47692;53.714;11.372;2024-02-14T08:06:16;11.75;;;6.00;;
61785;SDS011;47692;53.714;11.372;2024-02-14T08:08:42;14.98;;;6.28;;
61785;SDS011;47692;53.714;11.372;2024-02-14T08:11:09;15.30;;;6.72;;
61785;SDS011;47692;53.714;11.372;2024-02-14T08:13:34;11.80;;;6.88;;
61785;SDS011;47692;53.714;11.372;2024-02-14T08:15:59;10.75;;;6.32;;
61785;SDS011;47692;53.714;11.372;2024-02-14T08:18:25;13.13;;;6.28;;
61785;SDS011;47692;53.714;11.372;2024-02-14T08:20:52;13.73;;;6.78;;
61785;SDS011;47692;53.714;11.372;2024-02-14T08:23:17;12.52;;;6.68;;
61785;SDS011;47692;53.714;11.372;2024-02-14T08:25:42;12.75;;;6.20;;
61785;SDS011;47692;53.714;11.372;2024-02-14T08:28:08;15.18;;;7.07;;
61785;SDS011;47692;53.714;11.372;2024-02-14T08:30:34;11.57;;;7.00;;
61785;SDS011;47692;53.714;11.372;2024-02-14T08:33:00;10.80;;;6.05;;
61785;SDS011;47692;53.714;11.372;2024-02-14T08:35:25;12.38;;;6.68;;
61785;SDS011;47692;53.714;11.372;2024-02-14T08:37:50;13.07;;;6.97;;
61785;SDS011;47692;53.714;11.372;2024-02-14T08:40:16;12.25;;;7.10;;
61785;SDS011;47692;53.714;11.372;2024-02-14T08:42:41;14.10;;;7.72;;
61785;SDS011;47692;53.714;11.372;2024-02-14T08:45:07;11.77;;;7.10;;
61785;SDS011;47692;53.714;11.372;2024-02-14T08:47:33;14.43;;;7.35;;
61785;SDS011;47692;53.714;11.372;2024-02-14T08:49:59;11.77;;;6.50;;
61785;SDS011;47692;53.714;11.372;2024-02-14T08:52:24;11.95;;;7.15;;
61785;SDS011;47692;53.714;11.372;2024-02-14T08:54:50;14.45;;;7.47;;
61785;SDS011;47692;53.714;11.372;2024-02-14T08:57:16;15.43;;;7.13;;
61785;SDS011;47692;53.714;11.372;2024-02-14T08:59:43;13.32;;;6.65;;
61785;SDS011;47692;53.714;11.372;2024-02-14T09:02:11;11.90;;;7.07;;
61785;SDS011;47692;53.714;11.372;2024-02-14T09:04:37;14.32;;;7.10;;
61785;SDS011;47692;53.714;11.372;2024-02-14T09:07:02;15.50;;;7.18;;
61785;SDS011;47692;53.714;11.372;2024-02-14T09:09:28;12.43;;;6.68;;
61785;SDS011;47692;53.714;11.372;2024-02-14T09:11:54;11.85;;;5.93;;
61785;SDS011;47692;53.714;11.372;2024-02-14T09:14:20;12.65;;;7.20;;
61785;SDS011;47692;53.714;11.372;2024-02-14T09:16:45;11.35;;;6.85;;
61785;SDS011;47692;53.714;11.372;2024-02-14T09:19:11;10.88;;;6.68;;
61785;SDS011;47692;53.714;11.372;2024-02-14T09:21:37;11.45;;;5.93;;
61785;SDS011;47692;53.714;11.372;2024-02-14T09:27:13;11.40;;;6.28;;
61785;SDS011;47692;53.714;11.372;2024-02-14T09:29:39;13.25;;;5.60;;
61785;SDS011;47692;53.714;11.372;2024-02-14T09:32:04;10.02;;;6.20;;
61785;SDS011;47692;53.714;11.372;2024-02-14T09:34:29;13.00;;;6.15;;
61785;SDS011;47692;53.714;11.372;2024-02-14T09:36:55;10.07;;;6.20;;
61785;SDS011;47692;53.714;11.372;2024-02-14T09:39:23;9.90;;;5.75;;
61785;SDS011;47692;53.714;11.372;2024-02-14T09:41:51;9.82;;;6.10;;
61785;SDS011;47692;53.714;11.372;2024-02-14T09:44:19;10.55;;;6.07;;
61785;SDS011;47692;53.714;11.372;2024-02-14T09:46:46;9.85;;;5.70;;
61785;SDS011;47692;53.714;11.372;2024-02-14T09:49:13;9.95;;;5.90;;
61785;SDS011;47692;53.714;11.372;2024-02-14T09:51:41;12.57;;;6.00;;
61785;SDS011;47692;53.714;11.372;2024-02-14T09:54:09;12.85;;;7.05;;
61785;SDS011;47692;53.714;11.372;2024-02-14T09:56:36;9.35;;;5.82;;
61785;SDS011;47692;53.714;11.372;2024-02-14T09:59:01;10.02;;;5.75;;
61785;SDS011;47692;53.714;11.372;2024-02-14T10:01:27;9.90;;;5.93;;
61785;SDS011;47692;53.714;11.372;2024-02-14T10:03:53;10.48;;;5.93;;
61785;SDS011;47692;53.714;11.372;2024-02-14T10:06:20;10.98;;;6.00;;
61785;SDS011;47692;53.714;11.372;2024-02-14T10:08:46;10.85;;;6.22;;
61785;SDS011;47692;53.714;11.372;2024-02-14T10:11:13;9.27;;;5.50;;
61785;SDS011;47692;53.714;11.372;2024-02-14T10:13:40;13.32;;;6.13;;
61785;SDS011;47692;53.714;11.372;2024-02-14T10:16:05;10.45;;;5.88;;
61785;SDS011;47692;53.714;11.372;2024-02-14T10:18:33;9.73;;;5.45;;
61785;SDS011;47692;53.714;11.372;2024-02-14T10:20:59;10.30;;;6.00;;
61785;SDS011;47692;53.714;11.372;2024-02-14T10:23:24;9.02;;;5.35;;
61785;SDS011;47692;53.714;11.372;2024-02-14T10:25:54;8.35;;;5.43;;
61785;SDS011;47692;53.714;11.372;2024-02-14T10:28:22;8.88;;;5.80;;
61785;SDS011;47692;53.714;11.372;2024-02-14T10:30:48;8.27;;;5.45;;
61785;SDS011;47692;53.714;11.372;2024-02-14T10:33:17;10.27;;;5.05;;
61785;SDS011;47692;53.714;11.372;2024-02-14T10:35:50;8.52;;;5.90;;
61785;SDS011;47692;53.714;11.372;2024-02-14T10:38:19;8.98;;;5.15;;
61785;SDS011;47692;53.714;11.372;2024-02-14T10:40:46;9.32;;;5.88;;
61785;SDS011;47692;53.714;11.372;2024-02-14T10:43:12;8.60;;;5.78;;
61785;SDS011;47692;53.714;11.372;2024-02-14T10:45:37;9.88;;;5.63;;
61785;SDS011;47692;53.714;11.372;2024-02-14T10:48:06;10.30;;;5.60;;
61785;SDS011;47692;53.714;11.372;2024-02-14T10:50:36;8.48;;;6.03;;
61785;SDS011;47692;53.714;11.372;2024-02-14T10:56:28;10.95;;;6.60;;
61785;SDS011;47692;53.714;11.372;2024-02-14T10:58:56;9.18;;;5.90;;
61785;SDS011;47692;53.714;11.372;2024-02-14T11:01:26;8.85;;;5.68;;
61785;SDS011;47692;53.714;11.372;2024-02-14T11:03:55;6.93;;;4.82;;
61785;SDS011;47692;53.714;11.372;2024-02-14T11:06:23;8.63;;;5.35;;
61785;SDS011;47692;53.714;11.372;2024-02-14T11:09:00;9.07;;;5.95;;
61785;SDS011;47692;53.714;11.372;2024-02-14T11:11:28;22.73;;;10.93;;
61785;SDS011;47692;53.714;11.372;2024-02-14T11:13:55;10.60;;;5.70;;
61785;SDS011;47692;53.714;11.372;2024-02-14T11:16:25;8.95;;;5.50;;
61785;SDS011;47692;53.714;11.372;2024-02-14T11:18:52;9.43;;;5.97;;
61785;SDS011;47692;53.714;11.372;2024-02-14T11:21:19;11.38;;;8.00;;
61785;SDS011;47692;53.714;11.372;2024-02-14T11:23:53;9.25;;;5.80;;
61785;SDS011;47692;53.714;11.372;2024-02-14T11:26:19;10.10;;;6.75;;
61785;SDS011;47692;53.714;11.372;2024-02-14T11:28:45;9.80;;;6.57;;
61785;SDS011;47692;53.714;11.372;2024-02-14T11:31:16;12.57;;;7.47;;
61785;SDS011;47692;53.714;11.372;2024-02-14T11:33:42;16.58;;;9.48;;
61785;SDS011;47692;53.714;11.372;2024-02-14T11:36:09;10.35;;;6.13;;
61785;SDS011;47692;53.714;11.372;2024-02-14T11:38:40;10.13;;;6.35;;
61785;SDS011;47692;53.714;11.372;2024-02-14T11:41:05;8.85;;;5.57;;
61785;SDS011;47692;53.714;11.372;2024-02-14T11:43:31;10.07;;;5.50;;
61785;SDS011;47692;53.714;11.372;2024-02-14T11:45:56;12.23;;;7.78;;
61785;SDS011;47692;53.714;11.372;2024-02-14T11:48:22;11.88;;;7.40;;
61785;SDS011;47692;53.714;11.372;2024-02-14T11:50:49;10.70;;;6.32;;
61785;SDS011;47692;53.714;11.372;2024-02-14T11:53:16;9.45;;;5.78;;
61785;SDS011;47692;53.714;11.372;2024-02-14T11:55:43;8.85;;;5.82;;
61785;SDS011;47692;53.714;11.372;2024-02-14T11:58:12;10.90;;;5.70;;
61785;SDS011;47692;53.714;11.372;2024-02-14T12:00:41;11.93;;;6.38;;
61785;SDS011;47692;53.714;11.372;2024-02-14T12:03:12;11.35;;;6.00;;
61785;SDS011;47692;53.714;11.372;2024-02-14T12:05:41;10.85;;;6.63;;
61785;SDS011;47692;53.714;11.372;2024-02-14T12:08:09;14.20;;;9.05;;
61785;SDS011;47692;53.714;11.372;2024-02-14T12:10:35;12.30;;;7.55;;
61785;SDS011;47692;53.714;11.372;2024-02-14T12:13:09;9.95;;;5.25;;
61785;SDS011;47692;53.714;11.372;2024-02-14T12:15:39;10.00;;;6.57;;
61785;SDS011;47692;53.714;11.372;2024-02-14T12:18:19;11.63;;;6.43;;
61785;SDS011;47692;53.714;11.372;2024-02-14T12:20:49;10.40;;;6.53;;
61785;SDS011;47692;53.714;11.372;2024-02-14T12:23:16;11.82;;;7.07;;
61785;SDS011;47692;53.714;11.372;2024-02-14T12:25:46;10.63;;;6.95;;
61785;SDS011;47692;53.714;11.372;2024-02-14T12:28:15;12.70;;;8.60;;
61785;SDS011;47692;53.714;11.372;2024-02-14T12:30:45;12.77;;;7.15;;
61785;SDS011;47692;53.714;11.372;2024-02-14T12:33:12;27.48;;;20.42;;
61785;SDS011;47692;53.714;11.372;2024-02-14T12:35:44;11.40;;;6.72;;
61785;SDS011;47692;53.714;11.372;2024-02-14T12:38:11;11.32;;;7.45;;
61785;SDS011;47692;53.714;11.372;2024-02-14T12:40:38;12.73;;;6.15;;
61785;SDS011;47692;53.714;11.372;2024-02-14T12:43:06;10.35;;;6.28;;
61785;SDS011;47692;53.714;11.372;2024-02-14T12:45:32;12.30;;;9.48;;
61785;SDS011;47692;53.714;11.372;2024-02-14T12:47:57;10.00;;;5.80;;
61785;SDS011;47692;53.714;11.372;2024-02-14T12:50:22;10.02;;;6.43;;
61785;SDS011;47692;53.714;11.372;2024-02-14T12:52:48;10.93;;;6.65;;
61785;SDS011;47692;53.714;11.372;2024-02-14T12:55:16;10.30;;;5.97;;
61785;SDS011;47692;53.714;11.372;2024-02-14T12:57:41;10.85;;;5.78;;
61785;SDS011;47692;53.714;11.372;2024-02-14T13:00:07;7.90;;;4.90;;
61785;SDS011;47692;53.714;11.372;2024-02-14T13:02:35;7.32;;;5.35;;
61785;SDS011;47692;53.714;11.372;2024-02-14T13:05:00;8.55;;;5.78;;
61785;SDS011;47692;53.714;11.372;2024-02-14T13:07:27;8.80;;;5.93;;
61785;SDS011;47692;53.714;11.372;2024-02-14T13:09:52;7.53;;;5.05;;
61785;SDS011;47692;53.714;11.372;2024-02-14T13:12:18;7.38;;;5.18;;
61785;SDS011;47692;53.714;11.372;2024-02-14T13:14:43;6.30;;;3.75;;
61785;SDS011;47692;53.714;11.372;2024-02-14T13:17:09;7.78;;;4.63;;
61785;SDS011;47692;53.714;11.372;2024-02-14T13:19:35;6.55;;;4.32;;
61785;SDS011;47692;53.714;11.372;2024-02-14T13:22:01;7.18;;;4.35;;
61785;SDS011;47692;53.714;11.372;2024-02-14T13:24:27;6.55;;;4.90;;
61785;SDS011;47692;53.714;11.372;2024-02-14T13:26:53;7.10;;;3.80;;
61785;SDS011;47692;53.714;11.372;2024-02-14T13:29:18;5.65;;;3.75;;
61785;SDS011;47692;53.714;11.372;2024-02-14T13:31:44;6.20;;;3.88;;
61785;SDS011;47692;53.714;11.372;2024-02-14T13:34:10;5.22;;;3.78;;
61785;SDS011;47692;53.714;11.372;2024-02-14T13:36:36;4.88;;;3.22;;
61785;SDS011;47692;53.714;11.372;2024-02-14T13:39:02;4.80;;;3.10;;
61785;SDS011;47692;53.714;11.372;2024-02-14T13:41:27;3.85;;;2.80;;
61785;SDS011;47692;53.714;11.372;2024-02-14T13:43:53;4.25;;;2.85;;
61785;SDS011;47692;53.714;11.372;2024-02-14T13:46:18;5.88;;;3.25;;
61785;SDS011;47692;53.714;11.372;2024-02-14T13:48:44;4.05;;;2.83;;
61785;SDS011;47692;53.714;11.372;2024-02-14T13:51:09;4.70;;;2.83;;
61785;SDS011;47692;53.714;11.372;2024-02-14T13:53:35;5.72;;;3.10;;
61785;SDS011;47692;53.714;11.372;2024-02-14T13:56:00;4.43;;;2.83;;
61785;SDS011;47692;53.714;11.372;2024-02-14T13:58:26;5.13;;;3.85;;
61785;SDS011;47692;53.714;11.372;2024-02-14T14:00:51;4.47;;;3.08;;
61785;SDS011;47692;53.714;11.372;2024-02-14T14:03:17;3.50;;;2.30;;
61785;SDS011;47692;53.714;11.372;2024-02-14T14:05:43;4.22;;;2.25;;
61785;SDS011;47692;53.714;11.372;2024-02-14T14:08:08;4.47;;;2.80;;
61785;SDS011;47692;53.714;11.372;2024-02-14T14:10:33;4.40;;;2.75;;
61785;SDS011;47692;53.714;11.372;2024-02-14T14:12:59;4.10;;;2.83;;
61785;SDS011;47692;53.714;11.372;2024-02-14T14:15:24;4.15;;;2.85;;
61785;SDS011;47692;53.714;11.372;2024-02-14T14:17:51;5.00;;;3.00;;
61785;SDS011;47692;53.714;11.372;2024-02-14T14:20:17;4.60;;;3.03;;
61785;SDS011;47692;53.714;11.372;2024-02-14T14:22:43;4.60;;;2.75;;
61785;SDS011;47692;53.714;11.372;2024-02-14T14:25:09;4.30;;;2.92;;
61785;SDS011;47692;53.714;11.372;2024-02-14T14:27:34;4.00;;;2.60;;
61785;SDS011;47692;53.714;11.372;2024-02-14T14:30:00;3.80;;;2.38;;
61785;SDS011;47692;53.714;11.372;2024-02-14T14:32:25;5.22;;;2.67;;